• Join FlightAware (Why Join?)
  • Login
  • US Flag 
12:59AM EDT


 

Airport Tracker/Info


-or-


 

Live Flight TrackerFlight Track Log ✈ CDG4712 ✈ 23-Jan-2014 ✈ ZGGG / CAN - ZSWY / WUS

Flight Track Log - Related Links

Times and Time Zones

All times are in EST time to prevent confusion due to time zone crossing. See the CDG4712 flight status page for this flight to view local times or setup timezone preferences in your user account.

Time Position Orientation Groundspeed Altitude Reporting Facility
EST Latitude Longitude Course Direction KTS MPH feet Rate Location/Type
11:46PM 24.0384 114.6061 39° Northeast  Level Estimated
11:47PM 24.1645 114.7185 39° Northeast  Level Estimated
11:48PM 24.2905 114.8310 39° Northeast  Level Estimated
11:49PM 24.4165 114.9438 39° Northeast  Level Estimated
11:50PM 24.5423 115.0568 39° Northeast  Level Estimated
11:51PM 24.6681 115.1701 39° Northeast  Level Estimated
11:52PM 24.7938 115.2835 39° Northeast  Level Estimated
11:53PM 24.9193 115.3972 39° Northeast  Level Estimated
11:54PM 25.0448 115.5112 39° Northeast  Level Estimated
11:55PM 25.1703 115.6253 39° Northeast  Level Estimated
11:56PM 25.2956 115.7397 40° Northeast  Level Estimated
11:57PM 25.4208 115.8543 40° Northeast  Level Estimated
11:58PM 25.5460 115.9692 40° Northeast  Level Estimated
11:59PM 25.6710 116.0843 40° Northeast  Level Estimated
12:00AM 25.7960 116.1997 40° Northeast  Level Estimated
12:01AM 25.9209 116.3153 40° Northeast  Level Estimated
12:02AM 26.0457 116.4311 40° Northeast  Level Estimated
12:03AM 26.1704 116.5472 40° Northeast  Level Estimated
12:04AM 26.2950 116.6635 40° Northeast  Level Estimated
12:05AM 26.4195 116.7801 40° Northeast  Level Estimated
12:06AM 26.5439 116.8969 40° Northeast  Level Estimated
12:07AM 26.6682 117.0140 40° Northeast  Level Estimated
12:08AM 26.7924 117.1314 40° Northeast  Level Estimated
12:09AM 26.9166 117.2490 40° Northeast  Level Estimated
12:10AM 27.0406 117.3668 40° Northeast  Level Estimated
12:11AM 27.1645 117.4850 40° Northeast  Level Estimated
12:12AM 27.2883 117.6033 40° Northeast  Level Estimated
12:13AM 27.4121 117.7220 40° Northeast  Level Estimated
12:14AM 27.5357 117.8409 40° Northeast  Level Estimated
12:15AM 27.6592 117.9601 41° Northeast  Level Estimated
12:16AM 27.7019 118.0014 41° Northeast  Level Estimated
12:17AM 27.7019 118.0014 348° North  Level Estimated
12:18AM 27.7019 118.0014 348° North  Level Estimated
12:19AM 27.7019 118.0014 348° North  Level Estimated
12:20AM 27.7019 118.0014 348° North  Level Estimated
12:21AM 27.7019 118.0014 348° North  Level Estimated
12:22AM 27.7019 118.0014 348° North  Level Estimated
12:23AM 27.7019 118.0014 348° North  Level Estimated
12:24AM 27.7019 118.0014 348° North  Level Estimated
12:25AM 27.7019 118.0014 348° North  Level Estimated
12:26AM 27.7019 118.0014 348° North  Level Estimated
12:27AM 27.7019 118.0014 348° North  Level Estimated
12:28AM 27.7019 118.0014 348° North  Level Estimated
12:29AM 27.7019 118.0014 348° North  Level Estimated
12:30AM 27.7019 118.0014 348° North  Level Estimated
12:31AM 27.7019 118.0014 348° North  Level Estimated
12:32AM 27.7019 118.0014 348° North  Level Estimated
12:33AM 27.7019 118.0014 348° North  Level Estimated
12:34AM 27.7019 118.0014 348° North  Level Estimated
12:35AM 27.7019 118.0014 348° North  Level Estimated
12:36AM 27.7019 118.0014 348° North  Level Estimated